createdAt,value
2022-10-19T00:00:19.523Z,7
2022-10-19T00:01:19.397Z,8
2022-10-19T00:02:19.599Z,7
2022-10-19T00:03:22.394Z,6
2022-10-19T00:04:19.410Z,7
2022-10-19T00:05:19.421Z,6
2022-10-19T00:06:19.478Z,6
2022-10-19T00:07:19.444Z,5
2022-10-19T00:08:19.401Z,5
2022-10-19T00:09:19.490Z,5
2022-10-19T00:10:19.512Z,6
2022-10-19T00:11:19.426Z,6
2022-10-19T00:12:19.487Z,6
2022-10-19T00:13:19.504Z,6
2022-10-19T00:14:19.418Z,6
2022-10-19T00:15:19.526Z,5
2022-10-19T00:16:19.419Z,7
2022-10-19T00:17:19.405Z,5
2022-10-19T00:18:19.409Z,6
2022-10-19T00:19:19.407Z,6
2022-10-19T00:20:19.538Z,6
2022-10-19T00:21:19.531Z,6
2022-10-19T00:22:19.445Z,6
2022-10-19T00:23:19.515Z,6
2022-10-19T00:24:19.427Z,7
2022-10-19T00:25:19.557Z,6
2022-10-19T00:26:19.446Z,6
2022-10-19T00:27:19.436Z,6
2022-10-19T00:28:19.407Z,6
2022-10-19T00:29:19.467Z,6
2022-10-19T00:30:19.572Z,5
2022-10-19T00:31:19.478Z,5
2022-10-19T00:32:19.472Z,5
2022-10-19T00:33:19.405Z,6
2022-10-19T00:34:19.499Z,5
2022-10-19T00:35:19.531Z,6
2022-10-19T00:36:19.518Z,5
2022-10-19T00:37:19.411Z,6
2022-10-19T00:38:19.520Z,5
2022-10-19T00:39:19.551Z,5
2022-10-19T00:40:19.391Z,5
2022-10-19T00:41:19.440Z,5
2022-10-19T00:42:19.454Z,5
2022-10-19T00:43:19.438Z,5
2022-10-19T00:44:19.417Z,6
2022-10-19T00:45:19.390Z,7
2022-10-19T00:46:19.459Z,5
2022-10-19T00:47:19.408Z,5
2022-10-19T00:48:19.481Z,6
2022-10-19T00:49:19.425Z,6
2022-10-19T00:50:19.492Z,6
2022-10-19T00:51:19.503Z,6
2022-10-19T00:52:19.398Z,7
2022-10-19T00:53:19.501Z,6
2022-10-19T00:54:19.519Z,7
2022-10-19T00:55:19.419Z,5
2022-10-19T00:56:19.408Z,6
2022-10-19T00:57:19.416Z,6
2022-10-19T00:58:19.436Z,6
2022-10-19T00:59:19.466Z,5
2022-10-19T01:00:19.390Z,4
2022-10-19T01:01:19.567Z,6
2022-10-19T01:02:19.471Z,6
2022-10-19T01:03:19.473Z,6
2022-10-19T01:04:19.419Z,6
2022-10-19T01:05:19.402Z,6
2022-10-19T01:06:19.517Z,6
2022-10-19T01:07:19.502Z,6
2022-10-19T01:08:19.406Z,6
2022-10-19T01:09:19.528Z,7
2022-10-19T01:10:19.542Z,7
2022-10-19T01:11:19.447Z,6
2022-10-19T01:12:19.461Z,7
2022-10-19T01:13:19.532Z,6
2022-10-19T01:14:19.621Z,7
2022-10-19T01:15:19.466Z,7
2022-10-19T01:16:19.672Z,7
2022-10-19T01:17:19.665Z,7
2022-10-19T01:18:19.670Z,7
2022-10-19T01:19:19.793Z,7
2022-10-19T01:20:19.770Z,7
2022-10-19T01:21:19.767Z,7
2022-10-19T01:22:19.910Z,8
2022-10-19T01:23:19.499Z,7
2022-10-19T01:24:19.415Z,7
2022-10-19T01:25:19.454Z,6
2022-10-19T01:26:19.443Z,7
2022-10-19T01:27:19.400Z,7
2022-10-19T01:28:19.557Z,7
2022-10-19T01:29:19.449Z,6
2022-10-19T01:30:19.443Z,7
2022-10-19T01:31:19.465Z,7
2022-10-19T01:32:19.463Z,6
2022-10-19T01:33:19.465Z,6
2022-10-19T01:34:19.494Z,6
2022-10-19T01:35:19.487Z,6
2022-10-19T01:36:19.486Z,6
2022-10-19T01:37:19.514Z,6
2022-10-19T01:38:19.396Z,6
2022-10-19T01:39:19.420Z,6
2022-10-19T01:40:19.514Z,7
2022-10-19T01:41:19.546Z,7
2022-10-19T01:42:19.398Z,7
2022-10-19T01:43:19.538Z,7
2022-10-19T01:44:19.419Z,8
2022-10-19T01:45:19.407Z,8
2022-10-19T01:46:19.462Z,7
2022-10-19T01:47:19.526Z,8
2022-10-19T01:48:19.462Z,8
2022-10-19T01:49:19.463Z,7
2022-10-19T01:50:19.487Z,7
2022-10-19T01:51:19.494Z,8
2022-10-19T01:52:19.433Z,7
2022-10-19T01:53:19.409Z,8
2022-10-19T01:54:19.406Z,7
2022-10-19T01:55:19.401Z,7
2022-10-19T01:56:19.540Z,8
2022-10-19T01:57:19.525Z,7
2022-10-19T01:58:19.437Z,7
2022-10-19T01:59:19.452Z,7
2022-10-19T02:00:19.440Z,7
2022-10-19T02:01:19.450Z,7
2022-10-19T02:02:19.459Z,7
2022-10-19T02:03:19.463Z,6
2022-10-19T02:04:19.453Z,6
2022-10-19T02:05:19.487Z,6
2022-10-19T02:06:19.407Z,6
2022-10-19T02:07:19.395Z,7
2022-10-19T02:08:19.503Z,6
2022-10-19T02:09:19.519Z,7
2022-10-19T02:10:19.418Z,6
2022-10-19T02:11:19.459Z,6
2022-10-19T02:12:19.536Z,6
2022-10-19T02:13:19.426Z,6
2022-10-19T02:14:19.460Z,6
2022-10-19T02:15:19.442Z,6
2022-10-19T02:16:19.467Z,6
2022-10-19T02:17:19.421Z,6
2022-10-19T02:18:19.463Z,6
2022-10-19T02:19:19.500Z,6
2022-10-19T02:20:19.483Z,6
2022-10-19T02:21:19.478Z,6
2022-10-19T02:22:19.573Z,6
2022-10-19T02:23:19.515Z,7
2022-10-19T02:24:19.540Z,7
2022-10-19T02:25:19.638Z,7
2022-10-19T02:26:19.645Z,6
2022-10-19T02:27:19.541Z,6
2022-10-19T02:28:19.672Z,7
2022-10-19T02:29:19.713Z,7
2022-10-19T02:30:19.780Z,6
2022-10-19T02:31:19.773Z,7
2022-10-19T02:32:19.693Z,6
2022-10-19T02:33:19.782Z,7
2022-10-19T02:34:19.427Z,7
2022-10-19T02:35:19.483Z,6
2022-10-19T02:36:19.486Z,7
2022-10-19T02:37:22.064Z,6
2022-10-19T02:38:19.504Z,6
2022-10-19T02:39:19.521Z,7
2022-10-19T02:40:19.406Z,6
2022-10-19T02:41:19.436Z,7
2022-10-19T02:42:19.517Z,7
2022-10-19T02:43:19.464Z,6
2022-10-19T02:44:19.453Z,6
2022-10-19T02:45:19.449Z,6
2022-10-19T02:46:19.446Z,6
2022-10-19T02:47:19.407Z,6
2022-10-19T02:48:19.458Z,6
2022-10-19T02:49:19.502Z,6
2022-10-19T02:50:19.475Z,6
2022-10-19T02:51:19.492Z,6
2022-10-19T02:52:19.496Z,6
2022-10-19T02:53:19.492Z,6
2022-10-19T02:54:19.549Z,7
2022-10-19T02:55:19.516Z,7
2022-10-19T02:56:19.432Z,6
2022-10-19T02:57:19.456Z,7
2022-10-19T02:58:19.453Z,7
2022-10-19T02:59:19.574Z,6
2022-10-19T03:00:19.452Z,6
2022-10-19T03:01:19.475Z,7
2022-10-19T03:02:19.453Z,6
2022-10-19T03:03:19.459Z,7
2022-10-19T03:04:19.449Z,6
2022-10-19T03:05:19.396Z,7
2022-10-19T03:06:19.494Z,6
2022-10-19T03:07:19.503Z,7
2022-10-19T03:08:19.493Z,7
2022-10-19T03:09:19.505Z,7
2022-10-19T03:10:19.420Z,7
2022-10-19T03:11:19.532Z,6
2022-10-19T03:12:19.447Z,7
2022-10-19T03:13:19.419Z,6
2022-10-19T03:14:19.487Z,7
2022-10-19T03:15:19.502Z,7
2022-10-19T03:16:19.461Z,7
2022-10-19T03:17:19.545Z,6
2022-10-19T03:18:19.465Z,7
2022-10-19T03:19:19.477Z,7
2022-10-19T03:20:19.471Z,7
2022-10-19T03:21:19.484Z,7
2022-10-19T03:22:19.477Z,6
2022-10-19T03:23:19.410Z,7
2022-10-19T03:24:19.435Z,7
2022-10-19T03:25:19.442Z,9
2022-10-19T03:26:19.527Z,7
2022-10-19T03:27:19.566Z,6
2022-10-19T03:28:19.412Z,7
2022-10-19T03:29:19.524Z,7
2022-10-19T03:30:19.550Z,7
2022-10-19T03:31:19.448Z,6
2022-10-19T03:32:19.464Z,6
2022-10-19T03:33:19.498Z,6
2022-10-19T03:34:19.426Z,6
2022-10-19T03:35:19.404Z,5
2022-10-19T03:36:19.410Z,6
2022-10-19T03:37:19.517Z,6
2022-10-19T03:38:19.500Z,6
2022-10-19T03:39:19.435Z,6
2022-10-19T03:40:19.422Z,6
2022-10-19T03:41:19.446Z,6
2022-10-19T03:42:19.717Z,6
2022-10-19T03:43:19.613Z,6
2022-10-19T03:44:19.443Z,7
2022-10-19T03:45:19.531Z,6
2022-10-19T03:46:19.541Z,6
2022-10-19T03:47:19.526Z,5
2022-10-19T03:48:19.452Z,6
2022-10-19T03:49:19.499Z,6
2022-10-19T03:50:19.437Z,6
2022-10-19T03:51:19.485Z,6
2022-10-19T03:52:19.468Z,6
2022-10-19T03:53:19.447Z,6
2022-10-19T03:54:22.454Z,6
2022-10-19T03:55:21.558Z,6
2022-10-19T03:56:19.456Z,5
2022-10-19T03:57:19.434Z,6
2022-10-19T03:58:19.437Z,6
2022-10-19T03:59:19.427Z,6
2022-10-19T04:00:19.421Z,6
2022-10-19T04:01:19.596Z,6
2022-10-19T04:02:19.439Z,6
2022-10-19T04:03:19.444Z,6
2022-10-19T04:04:19.414Z,6
2022-10-19T04:05:19.416Z,6
2022-10-19T04:06:21.959Z,6
2022-10-19T04:07:19.403Z,6
2022-10-19T04:08:19.440Z,6
2022-10-19T04:09:19.481Z,6
2022-10-19T04:10:19.408Z,7
2022-10-19T04:11:19.493Z,7
2022-10-19T04:12:19.423Z,6
2022-10-19T04:13:19.408Z,6
2022-10-19T04:14:31.642Z,6
2022-10-19T04:15:19.566Z,7
2022-10-19T04:16:19.610Z,6
2022-10-19T04:17:19.703Z,7
2022-10-19T04:18:19.792Z,6
2022-10-19T04:19:19.783Z,6
2022-10-19T04:20:19.711Z,7
2022-10-19T04:21:19.754Z,7
2022-10-19T04:22:19.462Z,7
2022-10-19T04:23:19.476Z,7
2022-10-19T04:24:19.480Z,7
2022-10-19T04:25:19.454Z,7
2022-10-19T04:26:19.518Z,7
2022-10-19T04:27:19.527Z,6
2022-10-19T04:28:19.501Z,7
2022-10-19T04:29:19.526Z,6
2022-10-19T04:30:19.407Z,6
2022-10-19T04:31:19.407Z,6
2022-10-19T04:32:19.530Z,6
2022-10-19T04:33:19.431Z,7
2022-10-19T04:34:19.433Z,6
2022-10-19T04:35:19.548Z,7
2022-10-19T04:36:19.456Z,6
2022-10-19T04:37:19.448Z,7
2022-10-19T04:38:19.408Z,6
2022-10-19T04:39:19.488Z,7
2022-10-19T04:40:19.450Z,6
2022-10-19T04:41:19.491Z,6
2022-10-19T04:42:19.501Z,6
2022-10-19T04:43:19.585Z,6
2022-10-19T04:44:19.462Z,7
2022-10-19T04:45:19.516Z,6
2022-10-19T04:46:19.412Z,6
2022-10-19T04:47:19.512Z,6
2022-10-19T04:48:19.529Z,6
2022-10-19T04:49:20.347Z,6
2022-10-19T04:50:19.432Z,6
2022-10-19T04:51:19.452Z,7
2022-10-19T04:52:19.428Z,6
2022-10-19T04:53:19.561Z,6
2022-10-19T04:54:19.477Z,6
2022-10-19T04:55:19.623Z,6
2022-10-19T04:56:19.688Z,6
2022-10-19T04:57:19.781Z,6
2022-10-19T04:58:19.738Z,6
2022-10-19T04:59:19.729Z,6
2022-10-19T05:00:19.694Z,6
2022-10-19T05:01:19.492Z,6
2022-10-19T05:02:19.858Z,6
2022-10-19T05:03:19.786Z,7
2022-10-19T05:04:19.465Z,6
2022-10-19T05:05:19.403Z,6
2022-10-19T05:06:19.442Z,6
2022-10-19T05:07:19.444Z,6
2022-10-19T05:08:19.456Z,7
2022-10-19T05:09:19.473Z,6
2022-10-19T05:10:19.421Z,6
2022-10-19T05:11:19.454Z,7
2022-10-19T05:12:19.493Z,6
2022-10-19T05:13:19.484Z,6
2022-10-19T05:14:19.490Z,6
2022-10-19T05:15:19.497Z,6
2022-10-19T05:16:19.500Z,6
2022-10-19T05:17:19.505Z,6
2022-10-19T05:18:19.514Z,6
2022-10-19T05:19:19.540Z,6
2022-10-19T05:20:19.436Z,6
2022-10-19T05:21:19.443Z,5
2022-10-19T05:22:19.408Z,6
2022-10-19T05:23:19.481Z,5
2022-10-19T05:24:19.422Z,5
2022-10-19T05:25:19.416Z,5
2022-10-19T05:26:19.558Z,5
2022-10-19T05:27:19.494Z,6
2022-10-19T05:28:19.409Z,6
2022-10-19T05:29:19.526Z,6
2022-10-19T05:30:19.417Z,6
2022-10-19T05:31:19.500Z,6
2022-10-19T05:32:19.437Z,6
2022-10-19T05:33:19.525Z,6
2022-10-19T05:34:19.488Z,9
2022-10-19T05:35:22.338Z,7
2022-10-19T05:36:19.424Z,8
2022-10-19T05:37:19.411Z,8
2022-10-19T05:38:19.417Z,8
2022-10-19T05:39:19.419Z,6
2022-10-19T05:40:19.421Z,9
2022-10-19T05:41:19.418Z,8
2022-10-19T05:42:19.461Z,7
2022-10-19T05:43:19.417Z,10
2022-10-19T05:44:19.430Z,9
2022-10-19T05:45:19.417Z,8
2022-10-19T05:46:19.439Z,9
2022-10-19T05:47:19.424Z,8
2022-10-19T05:48:19.406Z,9
2022-10-19T05:49:19.434Z,9
2022-10-19T05:50:19.529Z,8
2022-10-19T05:51:19.429Z,9
2022-10-19T05:52:19.431Z,7
2022-10-19T05:53:19.441Z,7
2022-10-19T05:54:20.360Z,8
2022-10-19T05:55:19.423Z,8
2022-10-19T05:56:19.461Z,10
2022-10-19T05:57:19.580Z,8
2022-10-19T05:58:19.471Z,9
2022-10-19T05:59:19.419Z,10
2022-10-19T06:00:19.444Z,9
2022-10-19T06:01:19.518Z,8
2022-10-19T06:02:19.503Z,11
2022-10-19T06:03:19.432Z,12
2022-10-19T06:04:19.502Z,11
2022-10-19T06:05:19.464Z,11
2022-10-19T06:06:19.517Z,10
2022-10-19T06:07:19.424Z,10
2022-10-19T06:08:19.417Z,13
2022-10-19T06:09:19.458Z,11
2022-10-19T06:10:19.787Z,9
2022-10-19T06:11:19.457Z,8
2022-10-19T06:12:22.874Z,9
2022-10-19T06:13:19.563Z,10
2022-10-19T06:14:19.457Z,10
2022-10-19T06:15:19.412Z,14
2022-10-19T06:16:19.420Z,12
2022-10-19T06:17:19.488Z,11
2022-10-19T06:18:19.484Z,9
2022-10-19T06:19:19.436Z,10
2022-10-19T06:20:19.530Z,11
2022-10-19T06:21:19.517Z,11
2022-10-19T06:22:19.412Z,11
2022-10-19T06:23:19.525Z,9
2022-10-19T06:24:19.441Z,8
2022-10-19T06:25:20.388Z,9
2022-10-19T06:26:19.447Z,9
2022-10-19T06:27:19.506Z,10
2022-10-19T06:28:19.450Z,9
2022-10-19T06:29:19.575Z,8
2022-10-19T06:30:19.453Z,9
2022-10-19T06:31:19.495Z,9
2022-10-19T06:32:19.407Z,10
2022-10-19T06:33:19.485Z,8
2022-10-19T06:34:19.559Z,10
2022-10-19T06:35:19.410Z,10
2022-10-19T06:36:19.460Z,10
2022-10-19T06:37:19.522Z,10
2022-10-19T06:38:19.532Z,9
2022-10-19T06:39:19.455Z,9
2022-10-19T06:40:19.535Z,9
2022-10-19T06:41:19.605Z,7
2022-10-19T06:42:19.459Z,9
2022-10-19T06:43:19.657Z,8
2022-10-19T06:44:19.625Z,8
2022-10-19T06:45:19.714Z,7
2022-10-19T06:46:19.666Z,7
2022-10-19T06:47:19.492Z,8
2022-10-19T06:48:19.481Z,7
2022-10-19T06:49:19.592Z,7
2022-10-19T06:50:19.467Z,7
2022-10-19T06:51:19.438Z,6
2022-10-19T06:52:19.572Z,6
2022-10-19T06:53:19.462Z,7
2022-10-19T06:54:19.442Z,6
2022-10-19T06:55:19.416Z,6
2022-10-19T06:56:19.490Z,6
2022-10-19T06:57:19.523Z,7
2022-10-19T06:58:19.497Z,6
2022-10-19T06:59:19.525Z,6
2022-10-19T07:00:19.468Z,6
2022-10-19T07:01:19.587Z,6
2022-10-19T07:02:19.455Z,6
2022-10-19T07:03:19.430Z,7
2022-10-19T07:04:19.465Z,6
2022-10-19T07:05:19.418Z,6
2022-10-19T07:06:19.465Z,6
2022-10-19T07:07:19.464Z,6
2022-10-19T07:08:19.455Z,6
2022-10-19T07:09:19.435Z,6
2022-10-19T07:10:19.472Z,6
2022-10-19T07:11:19.502Z,6
2022-10-19T07:12:19.499Z,6
2022-10-19T07:13:19.498Z,5
2022-10-19T07:14:19.504Z,5
2022-10-19T07:15:19.450Z,6
2022-10-19T07:16:20.931Z,6
2022-10-19T07:17:19.417Z,6
2022-10-19T07:18:19.525Z,5
2022-10-19T07:19:19.440Z,5
2022-10-19T07:20:19.432Z,6
2022-10-19T07:21:19.435Z,6
2022-10-19T07:22:23.238Z,6
2022-10-19T07:23:19.556Z,6
2022-10-19T07:24:19.424Z,6
2022-10-19T07:25:19.410Z,6
2022-10-19T07:26:19.480Z,6
2022-10-19T07:27:19.513Z,6
2022-10-19T07:28:19.489Z,6
2022-10-19T07:29:19.504Z,6
2022-10-19T07:30:19.429Z,6
2022-10-19T07:31:19.502Z,5
2022-10-19T07:32:19.426Z,5
2022-10-19T07:33:19.559Z,6
2022-10-19T07:34:19.536Z,5
2022-10-19T07:35:19.421Z,6
2022-10-19T07:36:19.419Z,6
2022-10-19T07:37:19.439Z,5
2022-10-19T07:38:19.548Z,5
2022-10-19T07:39:19.571Z,5
2022-10-19T07:40:19.451Z,5
2022-10-19T07:41:19.465Z,5
2022-10-19T07:42:19.566Z,5
2022-10-19T07:43:19.417Z,5
2022-10-19T07:44:19.495Z,5
2022-10-19T07:45:19.493Z,5
2022-10-19T07:46:19.500Z,5
2022-10-19T07:47:19.460Z,5
2022-10-19T07:48:19.416Z,5
2022-10-19T07:49:19.466Z,5
2022-10-19T07:50:19.545Z,5
2022-10-19T07:51:19.561Z,5
2022-10-19T07:52:19.467Z,5
2022-10-19T07:53:19.624Z,5
2022-10-19T07:54:19.564Z,6
2022-10-19T07:55:19.589Z,5
2022-10-19T07:56:19.649Z,5
2022-10-19T07:57:19.831Z,5
2022-10-19T07:58:19.566Z,4
2022-10-19T07:59:19.679Z,5
2022-10-19T08:00:19.726Z,6
2022-10-19T08:01:19.813Z,5
2022-10-19T08:02:19.961Z,5
2022-10-19T08:04:13.836Z,5
2022-10-19T08:05:19.625Z,5
2022-10-19T08:06:19.528Z,5
2022-10-19T08:07:19.431Z,6
2022-10-19T08:08:19.434Z,5
2022-10-19T08:09:40.452Z,6
2022-10-19T08:10:19.555Z,5
2022-10-19T08:11:19.425Z,5
2022-10-19T08:12:19.472Z,5
2022-10-19T08:13:19.467Z,6
2022-10-19T08:14:19.444Z,6
2022-10-19T08:15:19.424Z,6
2022-10-19T08:16:19.524Z,6
2022-10-19T08:17:19.498Z,6
2022-10-19T08:18:19.572Z,6
2022-10-19T08:19:19.523Z,5
2022-10-19T08:20:19.420Z,6
2022-10-19T08:21:19.510Z,6
2022-10-19T08:22:19.534Z,5
2022-10-19T08:23:19.417Z,6
2022-10-19T08:24:19.440Z,5
2022-10-19T08:25:19.482Z,6
2022-10-19T08:26:19.548Z,5
2022-10-19T08:27:19.469Z,6
2022-10-19T08:28:19.425Z,5
2022-10-19T08:29:19.486Z,5
2022-10-19T08:30:19.427Z,6
2022-10-19T08:31:19.506Z,5
2022-10-19T08:32:19.414Z,6
2022-10-19T08:33:19.468Z,6
2022-10-19T08:34:19.517Z,5
2022-10-19T08:35:19.545Z,6
2022-10-19T08:36:19.428Z,6
2022-10-19T08:37:26.426Z,5
2022-10-19T08:38:19.528Z,6
2022-10-19T08:39:19.448Z,5
2022-10-19T08:40:19.459Z,5
2022-10-19T08:41:19.464Z,6
2022-10-19T08:42:19.572Z,6
2022-10-19T08:43:19.456Z,5
2022-10-19T08:44:19.479Z,5
2022-10-19T08:45:19.467Z,6
2022-10-19T08:46:19.478Z,5
2022-10-19T08:47:23.316Z,6
2022-10-19T08:48:19.423Z,6
2022-10-19T08:49:19.507Z,6
2022-10-19T08:50:19.424Z,5
2022-10-19T08:51:19.508Z,6
2022-10-19T08:52:19.512Z,5
2022-10-19T08:53:19.437Z,6
2022-10-19T08:54:19.444Z,5
2022-10-19T08:55:20.560Z,6
2022-10-19T08:56:38.851Z,6
2022-10-19T08:57:19.484Z,6
2022-10-19T08:58:19.452Z,6
2022-10-19T08:59:19.472Z,6
2022-10-19T09:00:19.440Z,6
2022-10-19T09:01:19.465Z,5
2022-10-19T09:02:19.470Z,5
2022-10-19T09:03:27.150Z,5
2022-10-19T09:04:19.486Z,6
2022-10-19T09:05:19.473Z,6
2022-10-19T09:06:19.536Z,6
2022-10-19T09:07:19.528Z,5
2022-10-19T09:08:19.412Z,5
2022-10-19T09:09:19.452Z,6
2022-10-19T09:10:19.618Z,5
2022-10-19T09:11:19.429Z,6
2022-10-19T09:12:19.566Z,6
2022-10-19T09:13:19.480Z,6
2022-10-19T09:14:19.445Z,6
2022-10-19T09:15:19.451Z,6
2022-10-19T09:16:19.420Z,5
2022-10-19T09:17:19.448Z,7
2022-10-19T09:18:19.470Z,5
2022-10-19T09:19:19.455Z,6
2022-10-19T09:20:19.593Z,5
2022-10-19T09:21:19.493Z,6
2022-10-19T09:22:19.448Z,5
2022-10-19T09:23:19.423Z,5
2022-10-19T09:24:19.548Z,6
2022-10-19T09:25:19.525Z,5
2022-10-19T09:26:19.414Z,5
2022-10-19T09:27:19.555Z,4
2022-10-19T09:28:19.605Z,6
2022-10-19T09:29:19.457Z,5
2022-10-19T09:30:19.542Z,5
2022-10-19T09:31:19.584Z,5
2022-10-19T09:32:19.555Z,4
2022-10-19T09:33:19.421Z,5
2022-10-19T09:34:19.427Z,5
2022-10-19T09:35:19.445Z,5
2022-10-19T09:36:27.615Z,5
2022-10-19T09:37:25.706Z,4
2022-10-19T09:38:19.427Z,5
2022-10-19T09:39:19.521Z,5
2022-10-19T09:40:19.534Z,5
2022-10-19T09:41:19.421Z,5
2022-10-19T09:42:19.553Z,5
2022-10-19T09:43:19.469Z,5
2022-10-19T09:44:19.556Z,5
2022-10-19T09:45:19.452Z,4
2022-10-19T09:46:20.451Z,5
2022-10-19T09:47:19.475Z,5
2022-10-19T09:48:19.467Z,4
2022-10-19T09:49:19.502Z,4
2022-10-19T09:50:19.479Z,4
2022-10-19T09:51:19.482Z,4
2022-10-19T09:52:19.494Z,5
2022-10-19T09:53:19.501Z,4
2022-10-19T09:54:19.446Z,4
2022-10-19T09:55:19.431Z,4
2022-10-19T09:56:19.438Z,4
2022-10-19T09:57:19.552Z,5
2022-10-19T09:58:19.544Z,4
2022-10-19T09:59:19.487Z,4
2022-10-19T10:00:19.471Z,4
2022-10-19T10:01:19.438Z,4
2022-10-19T10:02:19.455Z,4
2022-10-19T10:03:19.456Z,4
2022-10-19T10:04:19.432Z,4
2022-10-19T10:05:19.424Z,4
2022-10-19T10:06:19.482Z,4
2022-10-19T10:07:19.502Z,4
2022-10-19T10:08:19.524Z,3
2022-10-19T10:09:19.516Z,4
2022-10-19T10:10:19.516Z,4
2022-10-19T10:11:19.509Z,6
2022-10-19T10:12:19.438Z,5
2022-10-19T10:13:19.453Z,4
2022-10-19T10:14:19.456Z,5
2022-10-19T10:15:19.465Z,4
2022-10-19T10:16:19.441Z,4
2022-10-19T10:17:19.453Z,4
2022-10-19T10:18:19.473Z,4
2022-10-19T10:19:20.811Z,4
2022-10-19T10:20:19.464Z,5
2022-10-19T10:21:24.424Z,4
2022-10-19T10:22:19.596Z,4
2022-10-19T10:23:19.503Z,4
2022-10-19T10:24:19.446Z,3
2022-10-19T10:25:19.433Z,4
2022-10-19T10:26:19.426Z,3
2022-10-19T10:27:19.537Z,4
2022-10-19T10:28:19.532Z,3
2022-10-19T10:29:19.460Z,3
2022-10-19T10:30:19.549Z,3
2022-10-19T10:31:19.538Z,3
2022-10-19T10:32:19.547Z,3
2022-10-19T10:33:27.271Z,3
2022-10-19T10:34:28.662Z,3
2022-10-19T10:35:19.439Z,4
2022-10-19T10:36:19.458Z,4
2022-10-19T10:37:19.432Z,4
2022-10-19T10:38:19.485Z,4
2022-10-19T10:39:19.525Z,4
2022-10-19T10:40:23.260Z,3
2022-10-19T10:41:19.502Z,3
2022-10-19T10:42:19.524Z,4
2022-10-19T10:43:19.520Z,4
2022-10-19T10:44:19.448Z,4
2022-10-19T10:45:19.533Z,4
2022-10-19T10:46:19.544Z,3
2022-10-19T10:47:19.533Z,3
2022-10-19T10:48:19.548Z,4
2022-10-19T10:49:19.467Z,5
2022-10-19T10:50:19.420Z,3
2022-10-19T10:51:19.444Z,4
2022-10-19T10:52:19.438Z,3
2022-10-19T10:53:19.533Z,3
2022-10-19T10:54:19.496Z,3
2022-10-19T10:55:19.504Z,3
2022-10-19T10:56:19.602Z,3
2022-10-19T10:57:19.587Z,3
2022-10-19T10:58:19.497Z,3
2022-10-19T10:59:19.539Z,3
2022-10-19T11:00:19.429Z,3
2022-10-19T11:01:19.593Z,2
2022-10-19T11:02:19.629Z,3
2022-10-19T11:03:19.475Z,2
2022-10-19T11:04:19.456Z,3
2022-10-19T11:05:19.445Z,4
2022-10-19T11:06:19.513Z,3
2022-10-19T11:07:19.466Z,3
2022-10-19T11:08:19.454Z,3
2022-10-19T11:09:19.583Z,3
2022-10-19T11:10:19.687Z,3
2022-10-19T11:11:19.431Z,3
2022-10-19T11:12:19.514Z,2
2022-10-19T11:13:19.450Z,3
2022-10-19T11:14:19.520Z,3
2022-10-19T11:15:19.965Z,2
2022-10-19T11:16:19.439Z,2
2022-10-19T11:17:19.527Z,3
2022-10-19T11:18:19.475Z,2
2022-10-19T11:19:19.564Z,3
2022-10-19T11:20:19.561Z,6
2022-10-19T11:21:19.550Z,3
2022-10-19T11:22:22.402Z,2
2022-10-19T11:23:19.470Z,2
2022-10-19T11:24:19.552Z,2
2022-10-19T11:25:19.569Z,2
2022-10-19T11:26:19.439Z,2
2022-10-19T11:27:19.502Z,3
2022-10-19T11:28:19.508Z,3
2022-10-19T11:29:19.461Z,3
2022-10-19T11:30:19.455Z,3
2022-10-19T11:31:19.520Z,3
2022-10-19T11:32:19.521Z,3
2022-10-19T11:33:19.533Z,4
2022-10-19T11:34:23.635Z,4
2022-10-19T11:35:19.549Z,8
2022-10-19T11:36:19.549Z,8
2022-10-19T11:37:19.555Z,4
2022-10-19T11:38:22.111Z,6
2022-10-19T11:39:19.586Z,3
2022-10-19T11:40:22.075Z,3
2022-10-19T11:41:19.613Z,7
2022-10-19T11:42:19.452Z,4
2022-10-19T11:43:20.450Z,5
2022-10-19T11:44:19.494Z,4
2022-10-19T11:45:19.506Z,4
2022-10-19T11:46:19.511Z,5
2022-10-19T11:47:19.512Z,4
2022-10-19T11:48:19.514Z,3
2022-10-19T11:49:19.491Z,2
2022-10-19T11:50:19.547Z,2
2022-10-19T11:51:21.745Z,2
2022-10-19T11:52:19.571Z,3
2022-10-19T11:53:19.550Z,3
2022-10-19T11:54:19.470Z,2
2022-10-19T11:55:19.447Z,2
2022-10-19T11:56:19.571Z,2
2022-10-19T11:57:19.507Z,2
2022-10-19T11:58:19.487Z,2
2022-10-19T11:59:19.520Z,2
2022-10-19T12:00:39.091Z,2
2022-10-19T12:01:19.509Z,3
2022-10-19T12:02:19.576Z,3
2022-10-19T12:03:19.508Z,4
2022-10-19T12:04:19.540Z,3
2022-10-19T12:05:19.476Z,3
2022-10-19T12:06:19.445Z,2
2022-10-19T12:07:19.645Z,2
2022-10-19T12:09:19.625Z,3
2022-10-19T12:10:19.592Z,3
2022-10-19T12:11:19.573Z,3
2022-10-19T12:12:19.635Z,2
2022-10-19T12:13:19.585Z,2
2022-10-19T12:14:19.579Z,2
2022-10-19T12:15:19.490Z,2
2022-10-19T12:16:19.666Z,2
2022-10-19T12:17:19.601Z,2
2022-10-19T12:18:19.656Z,3
2022-10-19T12:19:19.784Z,2
2022-10-19T12:20:19.964Z,2
2022-10-19T12:21:19.633Z,3
2022-10-19T12:22:19.663Z,4
2022-10-19T12:23:19.733Z,4
2022-10-19T12:24:19.872Z,3
2022-10-19T12:25:19.815Z,2
2022-10-19T12:26:19.848Z,2
2022-10-19T12:27:19.873Z,2
2022-10-19T12:28:19.589Z,3
2022-10-19T12:29:19.498Z,4
2022-10-19T12:30:19.457Z,2
2022-10-19T12:31:19.507Z,3
2022-10-19T12:32:19.467Z,2
2022-10-19T12:33:19.518Z,5
2022-10-19T12:34:19.523Z,4
2022-10-19T12:36:19.545Z,4
2022-10-19T12:37:19.533Z,3
2022-10-19T12:38:19.538Z,2
2022-10-19T12:39:19.549Z,4
2022-10-19T12:40:19.448Z,4
2022-10-19T12:41:19.449Z,3
2022-10-19T12:42:19.574Z,3
2022-10-19T12:43:19.519Z,3
2022-10-19T12:44:19.523Z,4
2022-10-19T12:45:19.483Z,3
2022-10-19T12:46:19.604Z,2
2022-10-19T12:47:19.465Z,3
2022-10-19T12:48:19.486Z,2
2022-10-19T12:49:19.523Z,3
2022-10-19T12:51:19.516Z,5
2022-10-19T12:52:19.463Z,4
2022-10-19T12:53:19.501Z,2
2022-10-19T12:54:19.550Z,3
2022-10-19T12:55:19.541Z,3
2022-10-19T12:56:19.455Z,2
2022-10-19T12:57:22.781Z,3
2022-10-19T12:58:19.569Z,3
2022-10-19T12:59:19.583Z,3
2022-10-19T13:00:19.474Z,2
2022-10-19T13:01:19.511Z,3
2022-10-19T13:02:19.570Z,7
2022-10-19T13:03:19.541Z,7
2022-10-19T13:04:19.516Z,4
2022-10-19T13:05:19.452Z,5
2022-10-19T13:06:19.525Z,6
2022-10-19T13:07:19.552Z,3
2022-10-19T13:08:19.530Z,3
2022-10-19T13:09:19.485Z,3
2022-10-19T13:10:19.544Z,4
2022-10-19T13:11:19.560Z,3
2022-10-19T13:12:21.937Z,2
2022-10-19T13:13:19.450Z,3
2022-10-19T13:14:19.604Z,2
2022-10-19T13:15:19.569Z,2
2022-10-19T13:16:19.470Z,2
2022-10-19T13:17:19.471Z,2
2022-10-19T13:18:19.481Z,3
2022-10-19T13:19:19.477Z,5
2022-10-19T13:20:19.501Z,3
2022-10-19T13:21:19.473Z,2
2022-10-19T13:22:19.620Z,2
2022-10-19T13:23:19.517Z,3
2022-10-19T13:24:19.540Z,5
2022-10-19T13:25:19.527Z,3
2022-10-19T13:26:19.540Z,3
2022-10-19T13:27:19.491Z,3
2022-10-19T13:28:19.562Z,2
2022-10-19T13:29:19.641Z,2
2022-10-19T13:30:24.898Z,3
2022-10-19T13:31:19.520Z,2
2022-10-19T13:32:19.568Z,2
2022-10-19T13:33:19.578Z,2
2022-10-19T13:34:19.602Z,3
2022-10-19T13:35:19.479Z,3
2022-10-19T13:36:19.485Z,6
2022-10-19T13:37:19.594Z,4
2022-10-19T13:38:19.608Z,4
2022-10-19T13:39:19.484Z,5
2022-10-19T13:40:23.677Z,3
2022-10-19T13:41:19.479Z,3
2022-10-19T13:42:19.557Z,3
2022-10-19T13:43:19.532Z,2
2022-10-19T13:44:19.548Z,3
2022-10-19T13:45:19.558Z,3
2022-10-19T13:46:19.549Z,3
2022-10-19T13:47:19.695Z,3
2022-10-19T13:48:19.563Z,3
2022-10-19T13:49:19.506Z,3
2022-10-19T13:50:19.516Z,3
2022-10-19T13:51:19.582Z,2
2022-10-19T13:52:19.475Z,3
2022-10-19T13:53:19.543Z,5
2022-10-19T13:54:19.621Z,3
2022-10-19T13:55:19.500Z,3
2022-10-19T13:56:19.514Z,3
2022-10-19T13:57:19.537Z,3
2022-10-19T13:58:19.523Z,3
2022-10-19T13:59:19.577Z,2
2022-10-19T14:00:19.549Z,3
2022-10-19T14:01:19.606Z,3
2022-10-19T14:02:19.471Z,3
2022-10-19T14:03:19.562Z,3
2022-10-19T14:04:19.487Z,2
2022-10-19T14:05:19.488Z,3
2022-10-19T14:06:21.336Z,3
2022-10-19T14:07:19.481Z,3
2022-10-19T14:08:19.599Z,3
2022-10-19T14:09:19.544Z,3
2022-10-19T14:10:21.001Z,3
2022-10-19T14:11:19.518Z,3
2022-10-19T14:12:19.561Z,7
2022-10-19T14:13:19.711Z,5
2022-10-19T14:14:19.619Z,4
2022-10-19T14:15:19.641Z,4
2022-10-19T14:16:19.620Z,5
2022-10-19T14:17:19.726Z,3
2022-10-19T14:18:19.838Z,4
2022-10-19T14:19:19.591Z,4
2022-10-19T14:20:19.855Z,3
2022-10-19T14:21:19.721Z,3
2022-10-19T14:22:19.856Z,4
2022-10-19T14:23:19.542Z,4
2022-10-19T14:24:19.881Z,3
2022-10-19T14:25:19.638Z,3
2022-10-19T14:26:19.636Z,3
2022-10-19T14:27:19.528Z,4
2022-10-19T14:28:19.628Z,4
2022-10-19T14:29:19.526Z,4
2022-10-19T14:30:19.510Z,4
2022-10-19T14:31:19.490Z,4
2022-10-19T14:32:19.553Z,4
2022-10-19T14:33:19.554Z,3
2022-10-19T14:34:19.497Z,3
2022-10-19T14:35:19.546Z,3
2022-10-19T14:36:19.578Z,3
2022-10-19T14:37:19.593Z,3
2022-10-19T14:38:19.605Z,3
2022-10-19T14:39:19.510Z,3
2022-10-19T14:40:23.281Z,3
2022-10-19T14:41:19.521Z,3
2022-10-19T14:42:19.533Z,3
2022-10-19T14:43:19.529Z,3
2022-10-19T14:44:19.494Z,3
2022-10-19T14:45:19.532Z,4
2022-10-19T14:46:19.541Z,5
2022-10-19T14:47:19.559Z,4
2022-10-19T14:48:19.545Z,4
2022-10-19T14:49:19.493Z,3
2022-10-19T14:50:19.622Z,3